createdAt,value
2022-09-24T00:03:28.311Z,13.10
2022-09-24T00:08:31.109Z,13.00
2022-09-24T00:13:35.132Z,13.00
2022-09-24T00:18:37.981Z,12.90
2022-09-24T00:23:40.758Z,12.90
2022-09-24T00:28:43.092Z,12.80
2022-09-24T00:33:45.337Z,12.80
2022-09-24T00:38:51.473Z,12.80
2022-09-24T00:43:54.400Z,12.70
2022-09-24T00:49:10.632Z,12.70
2022-09-24T00:54:18.546Z,12.60
2022-09-24T00:59:24.007Z,12.60
2022-09-24T01:04:28.487Z,12.60
2022-09-24T01:09:31.076Z,12.60
2022-09-24T01:20:23.273Z,12.60
2022-09-24T01:31:00.786Z,12.60
2022-09-24T01:36:08.415Z,12.60
2022-09-24T01:41:13.760Z,12.60
2022-09-24T01:46:19.901Z,12.60
2022-09-24T01:51:27.740Z,12.60
2022-09-24T01:56:43.680Z,12.50
2022-09-24T02:07:05.480Z,12.40
2022-09-24T02:12:17.359Z,12.40
2022-09-24T02:17:19.679Z,12.40
2022-09-24T02:22:24.008Z,12.30
2022-09-24T02:27:28.948Z,12.30
2022-09-24T02:32:36.501Z,12.30
2022-09-24T02:37:41.582Z,12.30
2022-09-24T02:42:44.232Z,12.30
2022-09-24T02:47:46.488Z,12.40
2022-09-24T02:52:48.711Z,12.40
2022-09-24T02:57:50.896Z,12.40
2022-09-24T03:02:53.195Z,12.40
2022-09-24T03:07:55.996Z,12.40
2022-09-24T03:12:58.526Z,12.40
2022-09-24T03:18:00.742Z,12.30
2022-09-24T03:23:02.963Z,12.30
2022-09-24T03:28:05.293Z,12.30
2022-09-24T03:33:07.824Z,12.30
2022-09-24T03:38:10.072Z,12.30
2022-09-24T03:43:12.262Z,12.30
2022-09-24T03:48:14.577Z,12.30
2022-09-24T03:53:17.666Z,12.40
2022-09-24T03:58:19.925Z,12.40
2022-09-24T04:03:22.908Z,12.40
2022-09-24T04:08:26.071Z,12.40
2022-09-24T04:13:28.464Z,12.30
2022-09-24T04:18:32.142Z,12.20
2022-09-24T04:23:36.321Z,12.10
2022-09-24T04:28:38.792Z,12.00
2022-09-24T04:33:41.832Z,11.90
2022-09-24T04:38:46.764Z,11.90
2022-09-24T04:43:49.032Z,11.90
2022-09-24T04:48:51.343Z,11.80
2022-09-24T04:53:53.725Z,11.80
2022-09-24T04:58:56.712Z,11.70
2022-09-24T05:03:58.939Z,11.80
2022-09-24T05:09:01.239Z,11.90
2022-09-24T05:14:03.714Z,12.00
2022-09-24T05:19:06.006Z,12.20
2022-09-24T05:24:08.367Z,12.40
2022-09-24T05:29:10.620Z,12.50
2022-09-24T05:34:14.355Z,12.70
2022-09-24T05:39:16.587Z,12.90
2022-09-24T05:44:21.734Z,13.20
2022-09-24T05:49:24.064Z,13.40
2022-09-24T05:54:26.515Z,13.70
2022-09-24T05:59:28.820Z,13.90
2022-09-24T06:04:31.488Z,14.10
2022-09-24T06:09:33.687Z,14.30
2022-09-24T06:14:35.934Z,14.60
2022-09-24T06:19:39.377Z,14.90
2022-09-24T06:24:41.838Z,15.10
2022-09-24T06:29:44.180Z,15.60
2022-09-24T06:34:46.488Z,16.10
2022-09-24T06:39:48.756Z,16.80
2022-09-24T06:44:50.989Z,17.80
2022-09-24T06:49:53.203Z,19.60
2022-09-24T06:54:56.608Z,23.20
2022-09-24T06:59:58.831Z,25.70
2022-09-24T07:05:01.083Z,27.60
2022-09-24T07:10:06.488Z,29.00
2022-09-24T07:15:09.804Z,29.70
2022-09-24T07:20:12.081Z,30.50
2022-09-24T07:25:14.397Z,31.10
2022-09-24T07:30:17.083Z,31.20
2022-09-24T07:35:21.149Z,30.70
2022-09-24T07:40:24.574Z,29.30
2022-09-24T07:45:29.754Z,29.10
2022-09-24T07:50:38.927Z,29.80
2022-09-24T07:55:41.642Z,30.80
2022-09-24T08:00:43.979Z,31.30
2022-09-24T08:05:46.422Z,31.90
2022-09-24T08:10:49.050Z,32.30
2022-09-24T08:16:00.144Z,31.60
2022-09-24T08:21:09.377Z,31.40
2022-09-24T08:26:13.073Z,30.80
2022-09-24T08:31:15.773Z,29.90
2022-09-24T08:36:19.190Z,28.80
2022-09-24T08:51:58.318Z,26.80
2022-09-24T08:57:03.389Z,26.40
2022-09-24T09:02:37.063Z,25.90
2022-09-24T09:12:56.976Z,25.30
2022-09-24T09:23:20.384Z,24.00
2022-09-24T09:28:22.765Z,23.70
2022-09-24T09:44:02.044Z,22.50
2022-09-24T09:49:07.678Z,21.90
2022-09-24T09:54:10.188Z,21.80
2022-09-24T10:04:41.356Z,21.80
2022-09-24T10:09:45.144Z,21.10
2022-09-24T10:15:02.303Z,21.40
2022-09-24T10:20:15.057Z,21.40
2022-09-24T10:25:21.168Z,21.10
2022-09-24T10:30:39.053Z,21.20
2022-09-24T10:35:41.575Z,21.10
2022-09-24T10:40:44.020Z,20.90
2022-09-24T10:56:43.731Z,21.20
2022-09-24T11:18:31.878Z,21.50
2022-09-24T12:00:14.357Z,21.50
2022-09-24T12:05:46.377Z,21.80
2022-09-24T12:16:14.389Z,21.60
2022-09-24T12:21:28.234Z,21.50
2022-09-24T12:26:31.449Z,21.00
2022-09-24T12:37:06.368Z,21.00
2022-09-24T12:42:11.987Z,21.60
2022-09-24T12:47:19.782Z,21.80
2022-09-24T12:57:40.179Z,21.50
2022-09-24T13:02:46.795Z,21.00
2022-09-24T13:13:28.946Z,21.10
2022-09-24T13:18:35.497Z,21.30
2022-09-24T13:49:46.470Z,21.20
2022-09-24T13:54:54.214Z,21.50
2022-09-24T14:05:23.304Z,21.20
2022-09-24T14:10:25.690Z,21.20
2022-09-24T14:15:28.104Z,20.90
2022-09-24T14:20:34.806Z,20.80
2022-09-24T14:25:39.823Z,20.90
2022-09-24T14:30:52.065Z,21.00
2022-09-24T14:35:56.651Z,21.00
2022-09-24T14:41:13.221Z,21.00
2022-09-24T14:51:29.739Z,20.90
2022-09-24T14:56:33.899Z,20.90
2022-09-24T15:01:36.108Z,20.90
2022-09-24T15:06:38.663Z,20.90
2022-09-24T15:11:43.675Z,20.90
2022-09-24T15:16:47.740Z,20.90
2022-09-24T15:21:52.986Z,20.80
2022-09-24T15:27:05.162Z,20.70
2022-09-24T15:32:22.989Z,20.60
2022-09-24T15:37:27.386Z,20.50
2022-09-24T15:42:29.770Z,20.30
2022-09-24T15:47:31.970Z,20.20
2022-09-24T15:52:44.151Z,20.00
2022-09-24T15:57:46.972Z,19.80
2022-09-24T16:02:52.896Z,19.60
2022-09-24T16:07:55.188Z,19.50
2022-09-24T16:12:57.707Z,19.30
2022-09-24T16:17:59.973Z,19.20
2022-09-24T16:23:02.172Z,19.10
2022-09-24T16:28:04.385Z,19.00
2022-09-24T16:33:06.596Z,18.90
2022-09-24T16:38:08.831Z,18.80
2022-09-24T16:43:11.297Z,18.70
2022-09-24T16:48:13.706Z,18.60
2022-09-24T16:53:16.603Z,18.50
2022-09-24T16:58:18.817Z,18.50
2022-09-24T17:03:21.044Z,18.40
2022-09-24T17:08:23.316Z,18.30
2022-09-24T17:13:25.492Z,18.30
2022-09-24T17:18:28.003Z,18.30
2022-09-24T17:23:30.761Z,18.20
2022-09-24T17:28:35.642Z,18.20
2022-09-24T17:33:43.331Z,18.10
2022-09-24T17:38:46.235Z,18.00
2022-09-24T17:43:48.484Z,18.00
2022-09-24T17:48:53.784Z,18.00
2022-09-24T17:53:56.029Z,17.90
2022-09-24T17:58:59.305Z,17.90
2022-09-24T18:04:02.904Z,17.80
2022-09-24T18:09:06.309Z,17.80
2022-09-24T18:14:14.656Z,17.80
2022-09-24T18:19:17.753Z,17.70
2022-09-24T18:24:20.071Z,17.60
2022-09-24T18:29:22.291Z,17.50
2022-09-24T18:34:25.160Z,17.30
2022-09-24T18:39:27.382Z,17.30
2022-09-24T18:44:29.585Z,17.20
2022-09-24T18:49:31.790Z,17.10
2022-09-24T18:54:34.276Z,17.10
2022-09-24T18:59:44.678Z,17.00
2022-09-24T19:04:46.998Z,16.90
2022-09-24T19:09:49.239Z,16.90
2022-09-24T19:14:54.166Z,16.90
2022-09-24T19:19:56.418Z,16.90
2022-09-24T19:24:58.952Z,16.90
2022-09-24T19:30:01.440Z,16.90
2022-09-24T19:35:04.284Z,16.80
2022-09-24T19:40:07.572Z,16.80
2022-09-24T19:45:10.320Z,16.80
2022-09-24T19:50:17.370Z,16.80
2022-09-24T19:55:22.679Z,16.80
2022-09-24T20:00:27.099Z,16.80
2022-09-24T20:05:30.180Z,16.70
2022-09-24T20:10:36.312Z,16.60
2022-09-24T20:15:39.735Z,16.60
2022-09-24T20:20:42.129Z,16.50
2022-09-24T20:26:11.228Z,16.50
2022-09-24T20:31:16.145Z,16.40
2022-09-24T20:36:23.849Z,16.40
2022-09-24T20:41:26.873Z,16.30
2022-09-24T20:46:29.526Z,16.20
2022-09-24T20:51:33.906Z,16.10
2022-09-24T20:56:36.283Z,16.10
2022-09-24T21:01:39.471Z,16.00
2022-09-24T21:06:41.695Z,15.90
2022-09-24T21:11:44.103Z,15.80
2022-09-24T21:16:47.412Z,15.80
2022-09-24T21:21:50.584Z,15.70
2022-09-24T21:26:52.760Z,15.80
2022-09-24T21:31:54.972Z,15.70
2022-09-24T21:36:57.334Z,15.70
2022-09-24T21:41:59.795Z,15.70
2022-09-24T21:47:02.152Z,15.70
2022-09-24T21:52:06.740Z,15.70
2022-09-24T21:57:08.928Z,15.70
2022-09-24T22:02:12.348Z,15.70
2022-09-24T22:07:15.239Z,15.70
2022-09-24T22:12:17.459Z,15.60
2022-09-24T22:17:20.552Z,15.70
2022-09-24T22:22:22.820Z,15.70
2022-09-24T22:27:25.020Z,15.70
2022-09-24T22:32:27.410Z,15.80
2022-09-24T22:37:31.093Z,16.00
2022-09-24T22:42:33.280Z,15.90
2022-09-24T22:47:35.625Z,16.00
2022-09-24T22:52:38.044Z,15.90
2022-09-24T22:57:40.270Z,16.00
2022-09-24T23:02:42.644Z,16.00
2022-09-24T23:07:44.847Z,16.00
2022-09-24T23:12:47.035Z,16.10
2022-09-24T23:17:49.273Z,16.00
2022-09-24T23:22:51.480Z,16.10
2022-09-24T23:27:53.679Z,16.00
2022-09-24T23:32:56.196Z,16.00
2022-09-24T23:37:58.529Z,16.00
2022-09-24T23:43:00.864Z,16.00
2022-09-24T23:48:03.069Z,16.00
2022-09-24T23:53:05.861Z,15.90
2022-09-24T23:58:09.579Z,15.90
